sensor_id;sensor_type;location;lat;lon;timestamp;temperature;humidity
19829;DHT22;10075;50.924;4.396;2023-02-03T00:00:02;10.30;99.90
19829;DHT22;10075;50.924;4.396;2023-02-03T00:02:29;10.40;99.90
19829;DHT22;10075;50.924;4.396;2023-02-03T00:04:56;10.50;99.90
19829;DHT22;10075;50.924;4.396;2023-02-03T00:07:23;10.40;99.90
19829;DHT22;10075;50.924;4.396;2023-02-03T00:09:50;10.30;99.90
19829;DHT22;10075;50.924;4.396;2023-02-03T00:12:19;10.20;99.90
19829;DHT22;10075;50.924;4.396;2023-02-03T00:14:46;10.20;99.90
19829;DHT22;10075;50.924;4.396;2023-02-03T00:17:13;10.20;99.90
19829;DHT22;10075;50.924;4.396;2023-02-03T00:19:40;10.10;99.90
19829;DHT22;10075;50.924;4.396;2023-02-03T00:22:07;10.20;99.90
19829;DHT22;10075;50.924;4.396;2023-02-03T00:24:34;10.20;99.90
19829;DHT22;10075;50.924;4.396;2023-02-03T00:27:01;10.20;99.90
19829;DHT22;10075;50.924;4.396;2023-02-03T00:29:30;10.40;99.90
19829;DHT22;10075;50.924;4.396;2023-02-03T00:31:57;10.40;99.90
19829;DHT22;10075;50.924;4.396;2023-02-03T00:34:27;10.50;99.90
19829;DHT22;10075;50.924;4.396;2023-02-03T00:36:54;10.50;99.90
19829;DHT22;10075;50.924;4.396;2023-02-03T00:39:21;10.40;99.90
19829;DHT22;10075;50.924;4.396;2023-02-03T00:41:48;10.30;99.90
19829;DHT22;10075;50.924;4.396;2023-02-03T00:44:15;10.40;99.90
19829;DHT22;10075;50.924;4.396;2023-02-03T00:46:43;10.50;99.90
19829;DHT22;10075;50.924;4.396;2023-02-03T00:49:10;10.60;99.90
19829;DHT22;10075;50.924;4.396;2023-02-03T00:51:37;10.40;99.90
19829;DHT22;10075;50.924;4.396;2023-02-03T00:54:04;10.20;99.90
19829;DHT22;10075;50.924;4.396;2023-02-03T00:56:31;10.10;99.90
19829;DHT22;10075;50.924;4.396;2023-02-03T00:58:59;10.00;99.90
19829;DHT22;10075;50.924;4.396;2023-02-03T01:01:26;10.00;99.90
19829;DHT22;10075;50.924;4.396;2023-02-03T01:03:55;9.90;99.90
19829;DHT22;10075;50.924;4.396;2023-02-03T01:06:22;9.90;99.90
19829;DHT22;10075;50.924;4.396;2023-02-03T01:08:50;10.00;99.90
19829;DHT22;10075;50.924;4.396;2023-02-03T01:11:19;10.00;99.90
19829;DHT22;10075;50.924;4.396;2023-02-03T01:13:46;9.90;99.90
19829;DHT22;10075;50.924;4.396;2023-02-03T01:16:16;10.00;99.90
19829;DHT22;10075;50.924;4.396;2023-02-03T01:18:44;10.10;99.90
19829;DHT22;10075;50.924;4.396;2023-02-03T01:21:14;10.10;99.90
19829;DHT22;10075;50.924;4.396;2023-02-03T01:23:42;10.00;99.90
19829;DHT22;10075;50.924;4.396;2023-02-03T01:26:10;10.10;99.90
19829;DHT22;10075;50.924;4.396;2023-02-03T01:28:38;10.10;99.90
19829;DHT22;10075;50.924;4.396;2023-02-03T01:31:10;10.10;99.90
19829;DHT22;10075;50.924;4.396;2023-02-03T01:33:37;10.10;99.90
19829;DHT22;10075;50.924;4.396;2023-02-03T01:36:06;10.10;99.90
19829;DHT22;10075;50.924;4.396;2023-02-03T01:38:35;10.00;99.90
19829;DHT22;10075;50.924;4.396;2023-02-03T01:41:05;10.00;99.90
19829;DHT22;10075;50.924;4.396;2023-02-03T01:43:34;9.90;99.90
19829;DHT22;10075;50.924;4.396;2023-02-03T01:46:03;9.90;99.90
19829;DHT22;10075;50.924;4.396;2023-02-03T01:48:32;10.00;99.90
19829;DHT22;10075;50.924;4.396;2023-02-03T01:51:01;9.90;99.90
19829;DHT22;10075;50.924;4.396;2023-02-03T01:53:29;10.00;99.90
19829;DHT22;10075;50.924;4.396;2023-02-03T01:55:59;10.00;99.90
19829;DHT22;10075;50.924;4.396;2023-02-03T01:58:30;10.00;99.90
19829;DHT22;10075;50.924;4.396;2023-02-03T02:00:58;9.90;99.90
19829;DHT22;10075;50.924;4.396;2023-02-03T02:03:30;9.90;99.90
19829;DHT22;10075;50.924;4.396;2023-02-03T02:06:01;9.90;99.90
19829;DHT22;10075;50.924;4.396;2023-02-03T02:08:30;9.90;99.90
19829;DHT22;10075;50.924;4.396;2023-02-03T02:11:00;9.90;99.90
19829;DHT22;10075;50.924;4.396;2023-02-03T02:13:28;10.00;99.90
19829;DHT22;10075;50.924;4.396;2023-02-03T02:16:01;10.10;99.90
19829;DHT22;10075;50.924;4.396;2023-02-03T02:18:52;10.20;99.90
19829;DHT22;10075;50.924;4.396;2023-02-03T02:21:51;10.10;99.90
19829;DHT22;10075;50.924;4.396;2023-02-03T02:24:57;10.10;99.90
19829;DHT22;10075;50.924;4.396;2023-02-03T02:27:56;10.00;99.90
19829;DHT22;10075;50.924;4.396;2023-02-03T02:30:38;10.10;99.90
19829;DHT22;10075;50.924;4.396;2023-02-03T02:33:17;10.00;99.90
19829;DHT22;10075;50.924;4.396;2023-02-03T02:35:56;10.10;99.90
19829;DHT22;10075;50.924;4.396;2023-02-03T02:38:40;10.10;99.90
19829;DHT22;10075;50.924;4.396;2023-02-03T02:41:15;10.10;99.90
19829;DHT22;10075;50.924;4.396;2023-02-03T02:43:47;10.10;99.90
19829;DHT22;10075;50.924;4.396;2023-02-03T02:46:18;10.20;99.90
19829;DHT22;10075;50.924;4.396;2023-02-03T02:48:50;10.20;99.90
19829;DHT22;10075;50.924;4.396;2023-02-03T02:51:20;10.40;99.90
19829;DHT22;10075;50.924;4.396;2023-02-03T02:53:50;10.20;99.90
19829;DHT22;10075;50.924;4.396;2023-02-03T02:56:20;10.20;99.90
19829;DHT22;10075;50.924;4.396;2023-02-03T02:58:48;10.30;99.90
19829;DHT22;10075;50.924;4.396;2023-02-03T03:01:16;10.20;99.90
19829;DHT22;10075;50.924;4.396;2023-02-03T03:03:43;10.20;99.90
19829;DHT22;10075;50.924;4.396;2023-02-03T03:06:15;10.10;99.90
19829;DHT22;10075;50.924;4.396;2023-02-03T03:08:47;10.00;99.90
19829;DHT22;10075;50.924;4.396;2023-02-03T03:11:17;10.30;99.90
19829;DHT22;10075;50.924;4.396;2023-02-03T03:13:48;10.20;99.90
19829;DHT22;10075;50.924;4.396;2023-02-03T03:16:17;10.10;99.90
19829;DHT22;10075;50.924;4.396;2023-02-03T03:18:49;10.10;99.90
19829;DHT22;10075;50.924;4.396;2023-02-03T03:21:24;10.20;99.90
19829;DHT22;10075;50.924;4.396;2023-02-03T03:23:56;10.30;99.90
19829;DHT22;10075;50.924;4.396;2023-02-03T03:26:29;10.10;99.90
19829;DHT22;10075;50.924;4.396;2023-02-03T03:29:04;10.10;99.90
19829;DHT22;10075;50.924;4.396;2023-02-03T03:31:33;9.90;99.90
19829;DHT22;10075;50.924;4.396;2023-02-03T03:34:00;9.90;99.90
19829;DHT22;10075;50.924;4.396;2023-02-03T03:36:31;9.80;99.90
19829;DHT22;10075;50.924;4.396;2023-02-03T03:39:02;9.80;99.90
19829;DHT22;10075;50.924;4.396;2023-02-03T03:41:38;9.90;99.90
19829;DHT22;10075;50.924;4.396;2023-02-03T03:44:11;9.90;99.90
19829;DHT22;10075;50.924;4.396;2023-02-03T03:46:43;10.00;99.90
19829;DHT22;10075;50.924;4.396;2023-02-03T03:49:13;9.90;99.90
19829;DHT22;10075;50.924;4.396;2023-02-03T03:51:45;9.80;99.90
19829;DHT22;10075;50.924;4.396;2023-02-03T03:54:15;9.90;99.90
19829;DHT22;10075;50.924;4.396;2023-02-03T03:56:48;9.90;99.90
19829;DHT22;10075;50.924;4.396;2023-02-03T03:59:19;9.90;99.90
19829;DHT22;10075;50.924;4.396;2023-02-03T04:01:48;10.00;99.90
19829;DHT22;10075;50.924;4.396;2023-02-03T04:04:17;10.00;99.90
19829;DHT22;10075;50.924;4.396;2023-02-03T04:06:46;10.10;99.90
19829;DHT22;10075;50.924;4.396;2023-02-03T04:09:14;10.30;99.90
19829;DHT22;10075;50.924;4.396;2023-02-03T04:11:42;10.20;99.90
19829;DHT22;10075;50.924;4.396;2023-02-03T04:14:27;10.20;99.90
19829;DHT22;10075;50.924;4.396;2023-02-03T04:16:55;10.00;99.90
19829;DHT22;10075;50.924;4.396;2023-02-03T04:19:22;10.00;99.90
19829;DHT22;10075;50.924;4.396;2023-02-03T04:21:50;10.00;99.90
19829;DHT22;10075;50.924;4.396;2023-02-03T04:24:18;9.90;99.90
19829;DHT22;10075;50.924;4.396;2023-02-03T04:26:45;9.90;99.90
19829;DHT22;10075;50.924;4.396;2023-02-03T04:29:12;10.00;99.90
19829;DHT22;10075;50.924;4.396;2023-02-03T04:31:39;10.20;99.90
19829;DHT22;10075;50.924;4.396;2023-02-03T04:34:06;10.10;99.90
19829;DHT22;10075;50.924;4.396;2023-02-03T04:36:33;10.00;99.90
19829;DHT22;10075;50.924;4.396;2023-02-03T04:39:02;10.00;99.90
19829;DHT22;10075;50.924;4.396;2023-02-03T04:41:29;9.90;99.90
19829;DHT22;10075;50.924;4.396;2023-02-03T04:43:56;9.90;99.90
19829;DHT22;10075;50.924;4.396;2023-02-03T04:46:23;10.00;99.90
19829;DHT22;10075;50.924;4.396;2023-02-03T04:48:50;10.00;99.90
19829;DHT22;10075;50.924;4.396;2023-02-03T04:51:17;10.00;99.90
19829;DHT22;10075;50.924;4.396;2023-02-03T04:53:44;9.90;99.90
19829;DHT22;10075;50.924;4.396;2023-02-03T04:56:12;10.00;99.90
19829;DHT22;10075;50.924;4.396;2023-02-03T04:58:40;10.20;99.90
19829;DHT22;10075;50.924;4.396;2023-02-03T05:01:08;10.10;99.90
19829;DHT22;10075;50.924;4.396;2023-02-03T05:03:35;10.10;99.90
19829;DHT22;10075;50.924;4.396;2023-02-03T05:06:03;9.90;99.90
19829;DHT22;10075;50.924;4.396;2023-02-03T05:08:30;9.90;99.90
19829;DHT22;10075;50.924;4.396;2023-02-03T05:10:57;9.90;99.90
19829;DHT22;10075;50.924;4.396;2023-02-03T05:13:26;9.90;99.90
19829;DHT22;10075;50.924;4.396;2023-02-03T05:15:53;9.90;99.90
19829;DHT22;10075;50.924;4.396;2023-02-03T05:18:20;9.80;99.90
19829;DHT22;10075;50.924;4.396;2023-02-03T05:20:47;9.80;99.90
19829;DHT22;10075;50.924;4.396;2023-02-03T05:23:14;9.90;99.90
19829;DHT22;10075;50.924;4.396;2023-02-03T05:25:42;10.00;99.90
19829;DHT22;10075;50.924;4.396;2023-02-03T05:28:09;10.00;99.90
19829;DHT22;10075;50.924;4.396;2023-02-03T05:30:38;10.10;99.90
19829;DHT22;10075;50.924;4.396;2023-02-03T05:33:05;10.20;99.90
19829;DHT22;10075;50.924;4.396;2023-02-03T05:35:32;10.10;99.90
19829;DHT22;10075;50.924;4.396;2023-02-03T05:37:59;10.30;99.90
19829;DHT22;10075;50.924;4.396;2023-02-03T05:40:27;10.40;99.90
19829;DHT22;10075;50.924;4.396;2023-02-03T05:43:12;10.20;99.90
19829;DHT22;10075;50.924;4.396;2023-02-03T05:45:40;10.20;99.90
19829;DHT22;10075;50.924;4.396;2023-02-03T05:48:08;10.20;99.90
19829;DHT22;10075;50.924;4.396;2023-02-03T05:50:35;10.10;99.90
19829;DHT22;10075;50.924;4.396;2023-02-03T05:53:04;10.20;99.90
19829;DHT22;10075;50.924;4.396;2023-02-03T05:55:32;10.20;99.90
19829;DHT22;10075;50.924;4.396;2023-02-03T05:58:00;10.00;99.90
19829;DHT22;10075;50.924;4.396;2023-02-03T06:00:27;10.10;99.90
19829;DHT22;10075;50.924;4.396;2023-02-03T06:02:58;10.10;99.90
19829;DHT22;10075;50.924;4.396;2023-02-03T06:05:27;10.00;99.90
19829;DHT22;10075;50.924;4.396;2023-02-03T06:07:55;9.90;99.90
19829;DHT22;10075;50.924;4.396;2023-02-03T06:10:22;9.90;99.90
19829;DHT22;10075;50.924;4.396;2023-02-03T06:12:49;9.90;99.90
19829;DHT22;10075;50.924;4.396;2023-02-03T06:15:17;10.00;99.90
19829;DHT22;10075;50.924;4.396;2023-02-03T06:17:45;10.00;99.90
19829;DHT22;10075;50.924;4.396;2023-02-03T06:20:16;10.00;99.90
19829;DHT22;10075;50.924;4.396;2023-02-03T06:22:43;10.00;99.90
19829;DHT22;10075;50.924;4.396;2023-02-03T06:25:10;10.20;99.90
19829;DHT22;10075;50.924;4.396;2023-02-03T06:27:38;10.40;99.90
19829;DHT22;10075;50.924;4.396;2023-02-03T06:30:06;10.40;99.90
19829;DHT22;10075;50.924;4.396;2023-02-03T06:32:34;10.40;99.90
19829;DHT22;10075;50.924;4.396;2023-02-03T06:35:00;10.40;99.90
19829;DHT22;10075;50.924;4.396;2023-02-03T06:37:30;10.30;99.90
19829;DHT22;10075;50.924;4.396;2023-02-03T06:39:58;10.40;99.90
19829;DHT22;10075;50.924;4.396;2023-02-03T06:42:25;10.40;99.90
19829;DHT22;10075;50.924;4.396;2023-02-03T06:44:52;10.50;99.90
19829;DHT22;10075;50.924;4.396;2023-02-03T06:47:19;10.60;99.90
19829;DHT22;10075;50.924;4.396;2023-02-03T06:49:46;10.50;99.90
19829;DHT22;10075;50.924;4.396;2023-02-03T06:52:13;10.40;99.90
19829;DHT22;10075;50.924;4.396;2023-02-03T06:54:42;10.50;99.90
19829;DHT22;10075;50.924;4.396;2023-02-03T06:57:09;10.40;99.90
19829;DHT22;10075;50.924;4.396;2023-02-03T06:59:36;10.30;99.90
19829;DHT22;10075;50.924;4.396;2023-02-03T07:02:04;10.30;99.90
19829;DHT22;10075;50.924;4.396;2023-02-03T07:04:31;10.30;99.90
19829;DHT22;10075;50.924;4.396;2023-02-03T07:06:58;10.20;99.90
19829;DHT22;10075;50.924;4.396;2023-02-03T07:09:25;10.20;99.90
19829;DHT22;10075;50.924;4.396;2023-02-03T07:11:53;10.20;99.90
19829;DHT22;10075;50.924;4.396;2023-02-03T07:14:20;10.20;99.90
19829;DHT22;10075;50.924;4.396;2023-02-03T07:16:47;10.00;99.90
19829;DHT22;10075;50.924;4.396;2023-02-03T07:19:14;10.20;99.90
19829;DHT22;10075;50.924;4.396;2023-02-03T07:21:41;10.20;99.90
19829;DHT22;10075;50.924;4.396;2023-02-03T07:24:08;10.30;99.90
19829;DHT22;10075;50.924;4.396;2023-02-03T07:26:35;10.40;99.90
19829;DHT22;10075;50.924;4.396;2023-02-03T07:29:05;10.40;99.90
19829;DHT22;10075;50.924;4.396;2023-02-03T07:31:32;10.40;99.90
19829;DHT22;10075;50.924;4.396;2023-02-03T07:34:00;10.30;99.90
19829;DHT22;10075;50.924;4.396;2023-02-03T07:36:27;10.30;99.90
19829;DHT22;10075;50.924;4.396;2023-02-03T07:38:54;10.30;99.90
19829;DHT22;10075;50.924;4.396;2023-02-03T07:41:21;10.40;99.90
19829;DHT22;10075;50.924;4.396;2023-02-03T07:43:48;10.30;99.90
19829;DHT22;10075;50.924;4.396;2023-02-03T07:46:17;10.40;99.90
19829;DHT22;10075;50.924;4.396;2023-02-03T07:48:44;10.40;99.90
19829;DHT22;10075;50.924;4.396;2023-02-03T07:51:11;10.50;99.90
19829;DHT22;10075;50.924;4.396;2023-02-03T07:53:38;10.40;99.90
19829;DHT22;10075;50.924;4.396;2023-02-03T07:56:05;10.40;99.90
19829;DHT22;10075;50.924;4.396;2023-02-03T07:58:32;10.40;99.90
19829;DHT22;10075;50.924;4.396;2023-02-03T08:01:00;10.30;99.90
19829;DHT22;10075;50.924;4.396;2023-02-03T08:03:28;10.20;99.90
19829;DHT22;10075;50.924;4.396;2023-02-03T08:05:55;10.30;99.90
19829;DHT22;10075;50.924;4.396;2023-02-03T08:08:22;10.40;99.90
19829;DHT22;10075;50.924;4.396;2023-02-03T08:10:49;10.50;99.90
19829;DHT22;10075;50.924;4.396;2023-02-03T08:13:16;10.50;99.90
19829;DHT22;10075;50.924;4.396;2023-02-03T08:15:43;10.60;99.90
19829;DHT22;10075;50.924;4.396;2023-02-03T08:18:10;10.60;99.90
19829;DHT22;10075;50.924;4.396;2023-02-03T08:20:39;10.60;99.90
19829;DHT22;10075;50.924;4.396;2023-02-03T08:23:06;10.60;99.90
19829;DHT22;10075;50.924;4.396;2023-02-03T08:25:33;10.40;99.90
19829;DHT22;10075;50.924;4.396;2023-02-03T08:28:00;10.40;99.90
19829;DHT22;10075;50.924;4.396;2023-02-03T08:30:27;10.40;99.90
19829;DHT22;10075;50.924;4.396;2023-02-03T08:32:54;10.40;99.90
19829;DHT22;10075;50.924;4.396;2023-02-03T08:35:21;10.50;99.90
19829;DHT22;10075;50.924;4.396;2023-02-03T08:37:50;10.60;99.90
19829;DHT22;10075;50.924;4.396;2023-02-03T08:40:17;10.50;99.90
19829;DHT22;10075;50.924;4.396;2023-02-03T08:42:44;10.70;99.90
19829;DHT22;10075;50.924;4.396;2023-02-03T08:45:11;10.80;99.90
19829;DHT22;10075;50.924;4.396;2023-02-03T08:47:38;10.60;99.90
19829;DHT22;10075;50.924;4.396;2023-02-03T08:50:07;10.50;99.90
19829;DHT22;10075;50.924;4.396;2023-02-03T08:52:34;10.50;99.90
19829;DHT22;10075;50.924;4.396;2023-02-03T08:55:03;10.60;99.90
19829;DHT22;10075;50.924;4.396;2023-02-03T08:57:32;10.70;99.90
19829;DHT22;10075;50.924;4.396;2023-02-03T08:59:59;10.70;99.90
19829;DHT22;10075;50.924;4.396;2023-02-03T09:02:26;10.70;99.90
19829;DHT22;10075;50.924;4.396;2023-02-03T09:04:54;10.80;99.90
19829;DHT22;10075;50.924;4.396;2023-02-03T09:07:21;10.90;99.90
19829;DHT22;10075;50.924;4.396;2023-02-03T09:09:48;10.80;99.90
19829;DHT22;10075;50.924;4.396;2023-02-03T09:12:16;10.80;99.90
19829;DHT22;10075;50.924;4.396;2023-02-03T09:14:43;10.80;99.90
19829;DHT22;10075;50.924;4.396;2023-02-03T09:17:10;10.80;99.90
19829;DHT22;10075;50.924;4.396;2023-02-03T09:19:38;10.70;99.90
19829;DHT22;10075;50.924;4.396;2023-02-03T09:22:05;10.60;99.90
19829;DHT22;10075;50.924;4.396;2023-02-03T09:24:32;10.50;99.90
19829;DHT22;10075;50.924;4.396;2023-02-03T09:26:59;10.50;99.90
19829;DHT22;10075;50.924;4.396;2023-02-03T09:29:28;10.60;99.90
19829;DHT22;10075;50.924;4.396;2023-02-03T09:31:55;10.70;99.90
19829;DHT22;10075;50.924;4.396;2023-02-03T09:34:22;10.90;99.90
19829;DHT22;10075;50.924;4.396;2023-02-03T09:36:49;11.10;99.90
19829;DHT22;10075;50.924;4.396;2023-02-03T09:39:17;11.10;99.90
19829;DHT22;10075;50.924;4.396;2023-02-03T09:41:56;10.90;99.90
19829;DHT22;10075;50.924;4.396;2023-02-03T09:44:32;10.90;99.90
19829;DHT22;10075;50.924;4.396;2023-02-03T09:47:03;10.90;99.90
19829;DHT22;10075;50.924;4.396;2023-02-03T09:49:37;11.00;99.90
19829;DHT22;10075;50.924;4.396;2023-02-03T09:52:10;11.20;99.90
19829;DHT22;10075;50.924;4.396;2023-02-03T09:54:45;11.10;99.90
19829;DHT22;10075;50.924;4.396;2023-02-03T09:57:17;11.20;99.90
19829;DHT22;10075;50.924;4.396;2023-02-03T09:59:47;11.30;99.90
19829;DHT22;10075;50.924;4.396;2023-02-03T10:02:24;11.30;99.90
19829;DHT22;10075;50.924;4.396;2023-02-03T10:04:58;11.20;99.90
19829;DHT22;10075;50.924;4.396;2023-02-03T10:07:33;11.30;99.90
19829;DHT22;10075;50.924;4.396;2023-02-03T10:10:08;11.30;99.90
19829;DHT22;10075;50.924;4.396;2023-02-03T10:12:48;11.60;99.90
19829;DHT22;10075;50.924;4.396;2023-02-03T10:15:43;11.40;99.90
19829;DHT22;10075;50.924;4.396;2023-02-03T10:18:15;11.60;99.90
19829;DHT22;10075;50.924;4.396;2023-02-03T10:20:45;12.10;99.90
19829;DHT22;10075;50.924;4.396;2023-02-03T10:23:16;12.20;99.90
19829;DHT22;10075;50.924;4.396;2023-02-03T10:25:48;12.30;99.90
19829;DHT22;10075;50.924;4.396;2023-02-03T10:28:21;12.00;99.90
19829;DHT22;10075;50.924;4.396;2023-02-03T10:30:54;11.90;99.90
19829;DHT22;10075;50.924;4.396;2023-02-03T10:33:23;11.70;99.90
19829;DHT22;10075;50.924;4.396;2023-02-03T10:35:53;11.80;99.90
19829;DHT22;10075;50.924;4.396;2023-02-03T10:38:38;11.70;99.90
19829;DHT22;10075;50.924;4.396;2023-02-03T10:41:09;11.60;99.90
19829;DHT22;10075;50.924;4.396;2023-02-03T10:43:36;11.50;99.90
19829;DHT22;10075;50.924;4.396;2023-02-03T10:46:20;11.70;99.90
19829;DHT22;10075;50.924;4.396;2023-02-03T10:48:47;11.70;99.90
19829;DHT22;10075;50.924;4.396;2023-02-03T10:51:21;11.70;99.90
19829;DHT22;10075;50.924;4.396;2023-02-03T10:53:48;11.70;99.90
19829;DHT22;10075;50.924;4.396;2023-02-03T10:56:19;11.50;99.90
19829;DHT22;10075;50.924;4.396;2023-02-03T10:58:49;11.70;99.90
19829;DHT22;10075;50.924;4.396;2023-02-03T11:01:21;11.70;99.90
19829;DHT22;10075;50.924;4.396;2023-02-03T11:04:00;11.60;99.90
19829;DHT22;10075;50.924;4.396;2023-02-03T11:06:28;11.70;99.90
19829;DHT22;10075;50.924;4.396;2023-02-03T11:08:56;11.90;99.90
19829;DHT22;10075;50.924;4.396;2023-02-03T11:11:25;12.10;99.90
19829;DHT22;10075;50.924;4.396;2023-02-03T11:13:53;11.90;99.90
19829;DHT22;10075;50.924;4.396;2023-02-03T11:16:22;12.00;99.90
19829;DHT22;10075;50.924;4.396;2023-02-03T11:18:58;12.00;99.90
19829;DHT22;10075;50.924;4.396;2023-02-03T11:21:27;12.00;99.90
19829;DHT22;10075;50.924;4.396;2023-02-03T11:24:05;11.90;99.90
19829;DHT22;10075;50.924;4.396;2023-02-03T11:26:34;11.90;99.90
19829;DHT22;10075;50.924;4.396;2023-02-03T11:29:03;11.90;99.90
19829;DHT22;10075;50.924;4.396;2023-02-03T11:31:34;11.70;99.90
19829;DHT22;10075;50.924;4.396;2023-02-03T11:34:03;11.70;99.90
19829;DHT22;10075;50.924;4.396;2023-02-03T11:36:33;11.60;99.90
19829;DHT22;10075;50.924;4.396;2023-02-03T11:39:15;11.70;99.90
19829;DHT22;10075;50.924;4.396;2023-02-03T11:41:43;11.70;99.90
19829;DHT22;10075;50.924;4.396;2023-02-03T11:44:11;11.90;99.90
19829;DHT22;10075;50.924;4.396;2023-02-03T11:46:44;12.10;99.90
19829;DHT22;10075;50.924;4.396;2023-02-03T11:52:03;12.00;99.90
19829;DHT22;10075;50.924;4.396;2023-02-03T11:54:37;11.90;99.90
19829;DHT22;10075;50.924;4.396;2023-02-03T11:57:25;11.90;99.90
19829;DHT22;10075;50.924;4.396;2023-02-03T12:00:14;11.60;99.90
19829;DHT22;10075;50.924;4.396;2023-02-03T12:09:19;11.80;99.90
19829;DHT22;10075;50.924;4.396;2023-02-03T12:12:06;12.00;99.90
19829;DHT22;10075;50.924;4.396;2023-02-03T12:14:46;12.40;99.90
19829;DHT22;10075;50.924;4.396;2023-02-03T12:17:29;12.60;99.90
19829;DHT22;10075;50.924;4.396;2023-02-03T12:20:40;12.70;99.90
19829;DHT22;10075;50.924;4.396;2023-02-03T12:23:18;12.60;99.90
19829;DHT22;10075;50.924;4.396;2023-02-03T12:25:59;12.30;99.90
19829;DHT22;10075;50.924;4.396;2023-02-03T12:28:40;12.60;99.90
19829;DHT22;10075;50.924;4.396;2023-02-03T12:31:14;12.90;99.90
19829;DHT22;10075;50.924;4.396;2023-02-03T12:33:47;12.70;99.90
19829;DHT22;10075;50.924;4.396;2023-02-03T12:36:20;12.50;99.90
19829;DHT22;10075;50.924;4.396;2023-02-03T12:38:52;12.30;99.90
19829;DHT22;10075;50.924;4.396;2023-02-03T12:41:25;12.20;99.90
19829;DHT22;10075;50.924;4.396;2023-02-03T12:43:56;12.20;99.90
19829;DHT22;10075;50.924;4.396;2023-02-03T12:46:28;12.30;99.90
19829;DHT22;10075;50.924;4.396;2023-02-03T12:48:59;12.60;99.90
19829;DHT22;10075;50.924;4.396;2023-02-03T12:51:34;12.50;99.90
19829;DHT22;10075;50.924;4.396;2023-02-03T12:54:09;12.60;99.90
19829;DHT22;10075;50.924;4.396;2023-02-03T12:56:42;12.80;99.90
19829;DHT22;10075;50.924;4.396;2023-02-03T12:59:14;12.90;99.90
19829;DHT22;10075;50.924;4.396;2023-02-03T13:01:46;12.80;99.90
19829;DHT22;10075;50.924;4.396;2023-02-03T13:04:23;13.00;99.90
19829;DHT22;10075;50.924;4.396;2023-02-03T13:06:59;12.90;99.90
19829;DHT22;10075;50.924;4.396;2023-02-03T13:09:32;12.90;99.90
19829;DHT22;10075;50.924;4.396;2023-02-03T13:12:07;12.80;99.90
19829;DHT22;10075;50.924;4.396;2023-02-03T13:14:38;12.90;99.90
19829;DHT22;10075;50.924;4.396;2023-02-03T13:17:14;12.90;99.90
19829;DHT22;10075;50.924;4.396;2023-02-03T13:19:47;13.00;99.90
19829;DHT22;10075;50.924;4.396;2023-02-03T13:22:15;13.10;99.90
19829;DHT22;10075;50.924;4.396;2023-02-03T13:24:46;13.20;99.90
19829;DHT22;10075;50.924;4.396;2023-02-03T13:27:29;13.10;99.90
19829;DHT22;10075;50.924;4.396;2023-02-03T13:30:13;13.10;99.90
19829;DHT22;10075;50.924;4.396;2023-02-03T13:33:00;13.10;99.90
19829;DHT22;10075;50.924;4.396;2023-02-03T13:35:42;13.00;99.90
19829;DHT22;10075;50.924;4.396;2023-02-03T13:38:27;12.90;99.90
19829;DHT22;10075;50.924;4.396;2023-02-03T13:41:01;13.00;99.90
19829;DHT22;10075;50.924;4.396;2023-02-03T13:43:34;13.20;99.90
19829;DHT22;10075;50.924;4.396;2023-02-03T13:46:02;13.30;99.90
19829;DHT22;10075;50.924;4.396;2023-02-03T13:48:31;13.30;99.90
19829;DHT22;10075;50.924;4.396;2023-02-03T13:51:05;13.20;99.90
19829;DHT22;10075;50.924;4.396;2023-02-03T13:53:35;13.00;99.90
19829;DHT22;10075;50.924;4.396;2023-02-03T13:56:04;13.00;99.90
19829;DHT22;10075;50.924;4.396;2023-02-03T13:58:36;12.80;99.90
19829;DHT22;10075;50.924;4.396;2023-02-03T14:01:06;12.80;99.90
19829;DHT22;10075;50.924;4.396;2023-02-03T14:03:52;13.00;99.90
19829;DHT22;10075;50.924;4.396;2023-02-03T14:09:38;12.80;99.90
19829;DHT22;10075;50.924;4.396;2023-02-03T14:15:27;12.60;99.90
19829;DHT22;10075;50.924;4.396;2023-02-03T14:18:00;12.50;99.90
19829;DHT22;10075;50.924;4.396;2023-02-03T14:20:41;12.30;99.90
19829;DHT22;10075;50.924;4.396;2023-02-03T14:23:12;12.30;99.90
19829;DHT22;10075;50.924;4.396;2023-02-03T14:25:42;12.20;99.90
19829;DHT22;10075;50.924;4.396;2023-02-03T14:28:14;12.10;99.90
19829;DHT22;10075;50.924;4.396;2023-02-03T14:31:03;12.00;99.90
19829;DHT22;10075;50.924;4.396;2023-02-03T14:33:53;11.80;99.90
19829;DHT22;10075;50.924;4.396;2023-02-03T14:36:46;12.00;99.90
19829;DHT22;10075;50.924;4.396;2023-02-03T14:39:55;12.00;99.90
19829;DHT22;10075;50.924;4.396;2023-02-03T14:42:50;11.90;99.90
19829;DHT22;10075;50.924;4.396;2023-02-03T14:45:31;11.80;99.90
19829;DHT22;10075;50.924;4.396;2023-02-03T14:48:14;11.80;99.90
19829;DHT22;10075;50.924;4.396;2023-02-03T14:50:55;11.80;99.90
19829;DHT22;10075;50.924;4.396;2023-02-03T14:53:39;11.90;99.90
19829;DHT22;10075;50.924;4.396;2023-02-03T14:56:20;11.70;99.90
19829;DHT22;10075;50.924;4.396;2023-02-03T14:58:51;11.60;99.90
19829;DHT22;10075;50.924;4.396;2023-02-03T15:01:24;11.60;99.90
19829;DHT22;10075;50.924;4.396;2023-02-03T15:04:25;11.60;99.90
19829;DHT22;10075;50.924;4.396;2023-02-03T15:06:52;11.80;99.90
19829;DHT22;10075;50.924;4.396;2023-02-03T15:09:27;11.70;99.90
19829;DHT22;10075;50.924;4.396;2023-02-03T15:11:55;11.70;99.90
19829;DHT22;10075;50.924;4.396;2023-02-03T15:14:24;11.90;99.90
19829;DHT22;10075;50.924;4.396;2023-02-03T15:16:57;11.80;99.90
19829;DHT22;10075;50.924;4.396;2023-02-03T15:19:27;12.10;99.90
19829;DHT22;10075;50.924;4.396;2023-02-03T15:21:55;11.80;99.90
19829;DHT22;10075;50.924;4.396;2023-02-03T15:24:22;11.60;99.90
19829;DHT22;10075;50.924;4.396;2023-02-03T15:26:51;11.60;99.90
19829;DHT22;10075;50.924;4.396;2023-02-03T15:29:22;11.60;99.90
19829;DHT22;10075;50.924;4.396;2023-02-03T15:31:53;11.60;99.90
19829;DHT22;10075;50.924;4.396;2023-02-03T15:34:26;11.60;99.90
19829;DHT22;10075;50.924;4.396;2023-02-03T15:36:57;11.50;99.90
19829;DHT22;10075;50.924;4.396;2023-02-03T15:39:35;11.50;99.90
19829;DHT22;10075;50.924;4.396;2023-02-03T15:42:08;11.60;99.90
19829;DHT22;10075;50.924;4.396;2023-02-03T15:44:42;11.70;99.90
19829;DHT22;10075;50.924;4.396;2023-02-03T15:47:20;11.80;99.90
19829;DHT22;10075;50.924;4.396;2023-02-03T15:49:57;11.80;99.90
19829;DHT22;10075;50.924;4.396;2023-02-03T15:52:26;11.80;99.90
19829;DHT22;10075;50.924;4.396;2023-02-03T15:55:02;11.70;99.90
19829;DHT22;10075;50.924;4.396;2023-02-03T15:57:31;11.60;99.90
19829;DHT22;10075;50.924;4.396;2023-02-03T16:00:02;11.70;99.90
19829;DHT22;10075;50.924;4.396;2023-02-03T16:02:39;11.80;99.90
19829;DHT22;10075;50.924;4.396;2023-02-03T16:05:20;11.90;99.90
19829;DHT22;10075;50.924;4.396;2023-02-03T16:07:50;11.90;99.90
19829;DHT22;10075;50.924;4.396;2023-02-03T16:10:28;11.80;99.90
19829;DHT22;10075;50.924;4.396;2023-02-03T16:13:18;11.80;99.90